AAL3289 KABQ-KPHX
Flight info
| Callsign | AAL3289 |
|---|---|
| Flight time | N/A |
| Altitude | 30000 |
| Route | ADYOS3 ZUN EAGUL6 |
| Aircraft | A20N/M-SDE2E3FGHIRWXY/LB1 |
Departure
| Time | 2026-05-07 03:00 |
|---|---|
| Airport | Albuquerque International Sunport (KABQ) |
Arrival
| Time | N/A |
|---|---|
| Airport | Phoenix Sky Harbor International Airport (KPHX) |
| Time | Latitude | Longitude | Altitude | Speed | Heading |
|---|---|---|---|---|---|
| 2026-05-07 02:18 | 35.04689 | -106.61743 | 5320 ft | 0 kts | 17° |
| 2026-05-07 02:42 | 35.04686 | -106.61749 | 5316 ft | 4 kts | 335° |
| 2026-05-07 02:43 | 35.04665 | -106.61751 | 5324 ft | 4 kts | 13° |
| 2026-05-07 02:43 | 35.04639 | -106.61759 | 5321 ft | 4 kts | 28° |
| 2026-05-07 02:43 | 35.04625 | -106.61781 | 5318 ft | 4 kts | 88° |
| 2026-05-07 02:43 | 35.04625 | -106.61809 | 5324 ft | 1 kts | 91° |
| 2026-05-07 02:44 | 35.04625 | -106.61814 | 5322 ft | 0 kts | 91° |
| 2026-05-07 02:51 | 35.04625 | -106.61800 | 5316 ft | 3 kts | 91° |
| 2026-05-07 02:51 | 35.04622 | -106.61762 | 5319 ft | 7 kts | 100° |
| 2026-05-07 02:52 | 35.04608 | -106.61694 | 5321 ft | 10 kts | 103° |
| 2026-05-07 02:52 | 35.04589 | -106.61596 | 5322 ft | 14 kts | 102° |
| 2026-05-07 02:52 | 35.04585 | -106.61468 | 5319 ft | 16 kts | 90° |
| 2026-05-07 02:52 | 35.04584 | -106.61324 | 5320 ft | 18 kts | 90° |
| 2026-05-07 02:53 | 35.04581 | -106.61165 | 5324 ft | 20 kts | 90° |
| 2026-05-07 02:53 | 35.04581 | -106.60985 | 5322 ft | 22 kts | 90° |
| 2026-05-07 02:53 | 35.04579 | -106.60797 | 5321 ft | 23 kts | 90° |
| 2026-05-07 02:53 | 35.04579 | -106.60596 | 5320 ft | 25 kts | 90° |
| 2026-05-07 02:54 | 35.04578 | -106.60406 | 5323 ft | 20 kts | 90° |
| 2026-05-07 02:54 | 35.04576 | -106.60233 | 5328 ft | 21 kts | 91° |
| 2026-05-07 02:54 | 35.04573 | -106.60041 | 5326 ft | 24 kts | 91° |
| 2026-05-07 02:54 | 35.04578 | -106.59839 | 5328 ft | 24 kts | 85° |
| 2026-05-07 02:55 | 35.04583 | -106.59628 | 5322 ft | 26 kts | 89° |
| 2026-05-07 02:55 | 35.04583 | -106.59403 | 5325 ft | 27 kts | 90° |
| 2026-05-07 02:55 | 35.04584 | -106.59173 | 5320 ft | 28 kts | 90° |
| 2026-05-07 02:55 | 35.04583 | -106.58949 | 5319 ft | 26 kts | 90° |
| 2026-05-07 02:56 | 35.04578 | -106.58724 | 5322 ft | 27 kts | 90° |
| 2026-05-07 02:56 | 35.04577 | -106.58496 | 5326 ft | 24 kts | 90° |
| 2026-05-07 02:56 | 35.04577 | -106.58290 | 5329 ft | 24 kts | 91° |
| 2026-05-07 02:56 | 35.04575 | -106.58082 | 5327 ft | 23 kts | 91° |
| 2026-05-07 02:57 | 35.04574 | -106.57908 | 5328 ft | 18 kts | 90° |
| 2026-05-07 02:57 | 35.04573 | -106.57754 | 5329 ft | 15 kts | 90° |
| 2026-05-07 02:57 | 35.04568 | -106.57638 | 5323 ft | 15 kts | 106° |
| 2026-05-07 02:57 | 35.04510 | -106.57574 | 5322 ft | 3 kts | 172° |
| 2026-05-07 02:58 | 35.04472 | -106.57570 | 5319 ft | 8 kts | 176° |
| 2026-05-07 02:58 | 35.04415 | -106.57585 | 5321 ft | 9 kts | 230° |
| 2026-05-07 02:58 | 35.04407 | -106.57647 | 5322 ft | 0 kts | 271° |
| 2026-05-07 02:59 | 35.04408 | -106.57675 | 5320 ft | 23 kts | 270° |
| 2026-05-07 02:59 | 35.04410 | -106.58218 | 5320 ft | 100 kts | 271° |
| 2026-05-07 02:59 | 35.04418 | -106.59330 | 5324 ft | 158 kts | 270° |
| 2026-05-07 02:59 | 35.04390 | -106.60789 | 5846 ft | 170 kts | 269° |
| 2026-05-07 03:00 | 35.04340 | -106.62250 | 6602 ft | 178 kts | 268° |
| 2026-05-07 03:00 | 35.04266 | -106.63781 | 7240 ft | 188 kts | 267° |
| 2026-05-07 03:00 | 35.04160 | -106.65402 | 7960 ft | 195 kts | 267° |
| 2026-05-07 03:00 | 35.04054 | -106.67071 | 8744 ft | 200 kts | 267° |
| 2026-05-07 03:01 | 35.03934 | -106.68767 | 9558 ft | 201 kts | 265° |
| 2026-05-07 03:01 | 35.03770 | -106.70463 | 10358 ft | 201 kts | 263° |
| 2026-05-07 03:01 | 35.03575 | -106.72158 | 11076 ft | 203 kts | 266° |
| 2026-05-07 03:01 | 35.03491 | -106.73924 | 11436 ft | 221 kts | 271° |
| 2026-05-07 03:02 | 35.03492 | -106.75899 | 11713 ft | 245 kts | 277° |
| 2026-05-07 03:02 | 35.03829 | -106.78045 | 12071 ft | 268 kts | 282° |
| 2026-05-07 03:02 | 35.04203 | -106.80367 | 12437 ft | 291 kts | 281° |
| 2026-05-07 03:02 | 35.04459 | -106.82915 | 12773 ft | 314 kts | 274° |
| 2026-05-07 03:03 | 35.04544 | -106.85658 | 13266 ft | 328 kts | 273° |
| 2026-05-07 03:03 | 35.04624 | -106.88415 | 13999 ft | 329 kts | 273° |
| 2026-05-07 03:03 | 35.04713 | -106.91275 | 14754 ft | 335 kts | 273° |
| 2026-05-07 03:03 | 35.04711 | -106.94102 | 15484 ft | 340 kts | 269° |
| 2026-05-07 03:04 | 35.04619 | -106.97008 | 16221 ft | 345 kts | 269° |
| 2026-05-07 03:04 | 35.04533 | -106.99941 | 16915 ft | 350 kts | 270° |
| 2026-05-07 03:04 | 35.04448 | -107.02929 | 17618 ft | 355 kts | 270° |
| 2026-05-07 03:04 | 35.04361 | -107.05961 | 18252 ft | 362 kts | 270° |
| 2026-05-07 03:05 | 35.04271 | -107.09092 | 18694 ft | 370 kts | 270° |
| 2026-05-07 03:05 | 35.04178 | -107.12251 | 19333 ft | 374 kts | 270° |
| 2026-05-07 03:05 | 35.04082 | -107.15450 | 19915 ft | 379 kts | 271° |
| 2026-05-07 03:05 | 35.03985 | -107.18682 | 20498 ft | 383 kts | 271° |
| 2026-05-07 03:06 | 35.03887 | -107.21918 | 21064 ft | 388 kts | 271° |
| 2026-05-07 03:06 | 35.03785 | -107.25233 | 21658 ft | 393 kts | 271° |
| 2026-05-07 03:06 | 35.03680 | -107.28585 | 22220 ft | 398 kts | 271° |
| 2026-05-07 03:06 | 35.03575 | -107.31984 | 22792 ft | 402 kts | 271° |
| 2026-05-07 03:07 | 35.03469 | -107.35425 | 23365 ft | 407 kts | 272° |
| 2026-05-07 03:07 | 35.03364 | -107.38866 | 23853 ft | 411 kts | 272° |